createdAt,value
2019-02-25T00:02:24.758Z,4.10
2019-02-25T00:04:54.468Z,4.10
2019-02-25T00:07:25.029Z,4.00
2019-02-25T00:09:54.410Z,4.00
2019-02-25T00:12:25.625Z,4.00
2019-02-25T00:14:54.987Z,4.00
2019-02-25T00:17:24.508Z,4.00
2019-02-25T00:19:56.030Z,4.00
2019-02-25T00:22:25.434Z,4.00
2019-02-25T00:24:56.095Z,4.00
2019-02-25T00:27:25.495Z,4.00
2019-02-25T00:29:54.961Z,4.00
2019-02-25T00:32:25.532Z,4.00
2019-02-25T00:34:54.945Z,4.00
2019-02-25T00:37:24.320Z,4.00
2019-02-25T00:39:53.672Z,4.00
2019-02-25T00:42:23.087Z,4.00
2019-02-25T00:44:52.541Z,4.00
2019-02-25T00:47:22.024Z,4.00
2019-02-25T00:49:51.529Z,4.00
2019-02-25T00:52:22.064Z,4.00
2019-02-25T00:54:51.557Z,4.00
2019-02-25T00:57:21.231Z,4.10
2019-02-25T00:59:51.741Z,4.10
2019-02-25T01:02:22.332Z,4.10
2019-02-25T01:04:51.801Z,4.10
2019-02-25T01:07:22.396Z,4.10
2019-02-25T01:09:51.774Z,4.00
2019-02-25T01:12:21.356Z,4.00
2019-02-25T01:14:52.485Z,4.10
2019-02-25T01:17:23.116Z,4.10
2019-02-25T01:19:52.770Z,4.10
2019-02-25T01:22:22.181Z,4.00
2019-02-25T01:24:51.662Z,4.00
2019-02-25T01:27:22.305Z,4.00
2019-02-25T01:29:51.768Z,3.90
2019-02-25T01:32:22.919Z,3.80
2019-02-25T01:34:52.431Z,3.80
2019-02-25T01:37:21.843Z,3.70
2019-02-25T01:39:51.360Z,3.70
2019-02-25T01:42:20.804Z,3.60
2019-02-25T01:44:50.335Z,3.60
2019-02-25T01:47:21.402Z,3.60
2019-02-25T01:49:50.889Z,3.60
2019-02-25T01:52:20.271Z,3.50
2019-02-25T01:54:49.888Z,3.50
2019-02-25T01:57:19.381Z,3.50
2019-02-25T01:59:50.378Z,3.50
2019-02-25T02:02:20.924Z,3.50
2019-02-25T02:04:50.623Z,3.40
2019-02-25T02:07:20.130Z,3.40
2019-02-25T02:09:49.599Z,3.30
2019-02-25T02:12:19.015Z,3.30
2019-02-25T02:14:48.512Z,3.20
2019-02-25T02:17:19.045Z,3.10
2019-02-25T02:19:48.489Z,3.10
2019-02-25T02:22:17.836Z,3.00
2019-02-25T02:24:47.366Z,3.00
2019-02-25T02:27:17.043Z,3.00
2019-02-25T02:29:46.536Z,2.90
2019-02-25T02:32:17.032Z,2.90
2019-02-25T02:34:46.464Z,2.80
2019-02-25T02:37:15.862Z,2.80
2019-02-25T02:39:46.945Z,2.80
2019-02-25T02:42:18.256Z,2.80
2019-02-25T02:44:56.118Z,2.80
2019-02-25T02:47:29.045Z,2.70
2019-02-25T02:49:58.848Z,2.70
2019-02-25T02:52:29.522Z,2.70
2019-02-25T02:55:00.731Z,2.70
2019-02-25T02:57:30.107Z,2.70
2019-02-25T03:00:11.240Z,2.80
2019-02-25T03:02:40.887Z,2.80
2019-02-25T03:05:12.106Z,2.70
2019-02-25T03:07:41.513Z,2.70
2019-02-25T03:10:13.455Z,2.70
2019-02-25T03:12:44.166Z,2.80
2019-02-25T03:15:16.434Z,2.80
2019-02-25T03:17:46.031Z,2.80
2019-02-25T03:20:15.678Z,2.80
2019-02-25T03:22:45.076Z,2.80
2019-02-25T03:25:17.121Z,2.80
2019-02-25T03:27:46.581Z,2.90
2019-02-25T03:30:18.498Z,2.90
2019-02-25T03:32:47.965Z,2.90
2019-02-25T03:35:17.404Z,2.90
2019-02-25T03:37:48.006Z,2.90
2019-02-25T03:40:18.842Z,2.90
2019-02-25T03:42:48.466Z,2.90
2019-02-25T03:45:18.653Z,2.90
2019-02-25T03:47:48.166Z,2.90
2019-02-25T03:50:17.629Z,2.90
2019-02-25T03:52:47.354Z,2.90
2019-02-25T03:55:37.947Z,2.90
2019-02-25T03:58:07.670Z,2.90
2019-02-25T04:00:37.392Z,2.90
2019-02-25T04:03:06.863Z,2.90
2019-02-25T04:05:36.342Z,2.90
2019-02-25T04:08:05.701Z,2.90
2019-02-25T04:10:35.261Z,2.80
2019-02-25T04:13:23.714Z,2.80
2019-02-25T04:15:53.348Z,2.80
2019-02-25T04:18:24.578Z,2.80
2019-02-25T04:20:54.160Z,2.80
2019-02-25T04:23:23.680Z,2.80
2019-02-25T04:25:54.527Z,2.90
2019-02-25T04:28:24.081Z,2.90
2019-02-25T04:30:53.544Z,2.90
2019-02-25T04:33:22.910Z,2.90
2019-02-25T04:35:52.327Z,2.90
2019-02-25T04:38:21.729Z,2.90
2019-02-25T04:40:51.171Z,2.90
2019-02-25T04:43:20.595Z,3.00
2019-02-25T04:45:50.004Z,2.90
2019-02-25T04:48:19.466Z,2.90
2019-02-25T04:50:49.031Z,2.90
2019-02-25T04:53:18.560Z,2.90
2019-02-25T04:55:47.982Z,2.90
2019-02-25T04:58:17.518Z,2.90
2019-02-25T05:00:46.989Z,2.90
2019-02-25T05:03:17.082Z,2.90
2019-02-25T05:05:46.509Z,2.80
2019-02-25T05:08:15.954Z,2.80
2019-02-25T05:10:45.423Z,2.80
2019-02-25T05:13:14.880Z,2.80
2019-02-25T05:15:44.421Z,2.90
2019-02-25T05:18:13.765Z,2.90
2019-02-25T05:20:43.400Z,3.00
2019-02-25T05:23:14.510Z,3.00
2019-02-25T05:26:03.127Z,3.00
2019-02-25T05:28:32.993Z,3.00
2019-02-25T05:31:21.536Z,3.00
2019-02-25T05:33:51.049Z,3.00
2019-02-25T05:36:20.508Z,3.00
2019-02-25T05:38:50.050Z,3.00
2019-02-25T05:41:19.502Z,2.90
2019-02-25T05:43:48.970Z,2.90
2019-02-25T05:46:19.797Z,2.80
2019-02-25T05:48:49.213Z,2.80
2019-02-25T05:51:20.324Z,2.70
2019-02-25T05:53:49.721Z,2.70
2019-02-25T05:56:19.173Z,2.70
2019-02-25T05:58:48.539Z,2.70
2019-02-25T06:01:18.113Z,2.70
2019-02-25T06:03:47.757Z,2.70
2019-02-25T06:06:17.134Z,2.70
2019-02-25T06:08:46.943Z,2.60
2019-02-25T06:11:16.311Z,2.50
2019-02-25T06:13:45.744Z,2.40
2019-02-25T06:16:15.195Z,2.30
2019-02-25T06:18:44.774Z,2.30
2019-02-25T06:21:14.144Z,2.20
2019-02-25T06:23:43.722Z,2.20
2019-02-25T06:26:14.949Z,2.10
2019-02-25T06:28:46.262Z,2.10
2019-02-25T06:31:15.923Z,2.10
2019-02-25T06:33:47.437Z,2.10
2019-02-25T06:36:16.600Z,2.00
2019-02-25T06:38:47.235Z,2.00
2019-02-25T06:41:17.881Z,1.90
2019-02-25T06:43:47.336Z,1.90
2019-02-25T06:46:16.845Z,1.90
2019-02-25T06:48:46.227Z,1.90
2019-02-25T06:51:15.741Z,1.90
2019-02-25T06:53:47.778Z,1.90
2019-02-25T06:56:17.252Z,1.90
2019-02-25T06:58:47.776Z,1.90
2019-02-25T07:01:17.242Z,1.90
2019-02-25T07:04:05.360Z,1.90
2019-02-25T07:06:47.106Z,1.90
2019-02-25T07:09:26.862Z,2.00
2019-02-25T07:12:08.088Z,2.00
2019-02-25T07:14:49.612Z,2.00
2019-02-25T07:17:40.717Z,2.00
2019-02-25T07:20:42.814Z,2.00
2019-02-25T07:23:23.393Z,2.10
2019-02-25T07:26:11.465Z,2.10
2019-02-25T07:28:52.958Z,2.20
2019-02-25T07:31:53.227Z,2.30
2019-02-25T07:34:39.885Z,2.40
2019-02-25T07:37:29.542Z,2.40
2019-02-25T07:40:20.978Z,2.50
2019-02-25T07:43:12.076Z,2.60
2019-02-25T07:46:15.516Z,2.60
2019-02-25T07:49:03.871Z,2.70
2019-02-25T07:51:38.319Z,2.80
2019-02-25T07:54:28.970Z,2.90
2019-02-25T07:57:17.359Z,3.00
2019-02-25T08:00:05.720Z,3.20
2019-02-25T08:02:51.353Z,3.10
2019-02-25T08:05:45.422Z,3.10
2019-02-25T08:08:32.813Z,3.30
2019-02-25T08:11:19.523Z,3.40
2019-02-25T08:14:11.655Z,3.50
2019-02-25T08:19:51.988Z,3.60
2019-02-25T08:22:38.914Z,3.90
2019-02-25T08:28:32.696Z,4.00
2019-02-25T08:31:24.127Z,4.20
2019-02-25T08:34:02.536Z,4.30
2019-02-25T08:37:22.018Z,4.40
2019-02-25T08:50:21.153Z,4.50
2019-02-25T08:57:48.115Z,5.20
2019-02-25T09:00:17.567Z,5.40
2019-02-25T09:02:46.977Z,5.50
2019-02-25T09:05:16.395Z,5.70
2019-02-25T09:07:45.868Z,5.80
2019-02-25T09:10:15.927Z,5.90
2019-02-25T09:12:45.343Z,6.00
2019-02-25T09:15:14.799Z,6.10
2019-02-25T09:17:45.947Z,6.20
2019-02-25T09:20:15.888Z,6.20
2019-02-25T09:22:45.246Z,6.30
2019-02-25T09:25:14.679Z,6.50
2019-02-25T09:27:44.162Z,6.60
2019-02-25T09:30:15.594Z,6.70
2019-02-25T09:32:45.532Z,6.80
2019-02-25T09:35:15.302Z,6.90
2019-02-25T09:37:44.869Z,7.00
2019-02-25T09:40:15.651Z,7.10
2019-02-25T09:42:45.008Z,7.20
2019-02-25T09:45:15.321Z,7.30
2019-02-25T09:47:46.443Z,7.30
2019-02-25T09:50:17.063Z,7.40
2019-02-25T09:52:46.575Z,7.50
2019-02-25T09:55:16.035Z,7.50
2019-02-25T09:57:46.533Z,7.60
2019-02-25T10:00:17.769Z,7.70
2019-02-25T10:02:47.521Z,7.70
2019-02-25T10:05:16.921Z,7.70
2019-02-25T10:07:47.837Z,7.90
2019-02-25T10:10:17.353Z,8.00
2019-02-25T10:12:47.433Z,8.10
2019-02-25T10:15:17.143Z,8.20
2019-02-25T10:17:46.626Z,8.20
2019-02-25T10:20:18.950Z,8.30
2019-02-25T10:22:48.415Z,8.20
2019-02-25T10:25:17.889Z,8.40
2019-02-25T10:27:49.370Z,8.50
2019-02-25T10:30:18.862Z,8.60
2019-02-25T10:32:48.394Z,8.70
2019-02-25T10:35:17.918Z,8.70
2019-02-25T10:37:47.381Z,8.70
2019-02-25T10:40:19.034Z,8.80
2019-02-25T10:42:48.570Z,9.00
2019-02-25T10:45:18.235Z,9.10
2019-02-25T10:47:49.471Z,9.10
2019-02-25T10:50:18.977Z,9.20
2019-02-25T10:52:49.524Z,9.20
2019-02-25T10:55:26.832Z,9.30
2019-02-25T10:57:57.621Z,9.30
2019-02-25T11:00:29.364Z,9.40
2019-02-25T11:02:58.859Z,9.50
2019-02-25T11:05:30.559Z,9.50
2019-02-25T11:08:02.854Z,9.60
2019-02-25T11:10:35.567Z,9.70
2019-02-25T11:13:05.439Z,9.70
2019-02-25T11:15:38.031Z,9.70
2019-02-25T11:18:08.736Z,9.80
2019-02-25T11:20:38.346Z,9.90
2019-02-25T11:23:07.820Z,9.90
2019-02-25T11:25:37.411Z,10.00
2019-02-25T11:28:07.699Z,10.00
2019-02-25T11:30:39.733Z,10.10
2019-02-25T11:33:09.390Z,10.10
2019-02-25T11:35:40.633Z,10.20
2019-02-25T11:38:09.977Z,10.20
2019-02-25T11:40:39.426Z,10.20
2019-02-25T11:43:10.677Z,10.20
2019-02-25T11:45:39.988Z,10.30
2019-02-25T11:48:09.433Z,10.40
2019-02-25T11:50:38.878Z,10.40
2019-02-25T11:53:08.374Z,10.40
2019-02-25T11:55:38.294Z,10.40
2019-02-25T11:58:07.734Z,10.50
2019-02-25T12:00:39.918Z,10.40
2019-02-25T12:03:09.604Z,10.40
2019-02-25T12:05:39.051Z,10.40
2019-02-25T12:08:08.496Z,10.30
2019-02-25T12:10:39.823Z,10.30
2019-02-25T12:13:09.464Z,10.20
2019-02-25T12:15:38.996Z,10.20
2019-02-25T12:18:09.335Z,10.10
2019-02-25T12:20:38.871Z,10.10
2019-02-25T12:23:08.240Z,10.10
2019-02-25T12:25:37.657Z,10.10
2019-02-25T12:28:07.116Z,10.10
2019-02-25T12:30:36.765Z,10.10
2019-02-25T12:33:06.631Z,10.10
2019-02-25T12:35:36.389Z,10.00
2019-02-25T12:38:05.898Z,10.00
2019-02-25T12:40:35.395Z,10.00
2019-02-25T12:43:04.840Z,9.90
2019-02-25T12:45:34.320Z,9.90
2019-02-25T12:48:03.785Z,9.80
2019-02-25T12:50:33.302Z,9.80
2019-02-25T12:53:02.787Z,9.80
2019-02-25T12:55:32.254Z,9.80
2019-02-25T12:58:01.743Z,9.70
2019-02-25T13:00:31.148Z,9.70
2019-02-25T13:03:00.634Z,9.80
2019-02-25T13:05:30.118Z,9.80
2019-02-25T13:07:59.608Z,9.80
2019-02-25T13:10:29.114Z,9.80
2019-02-25T13:12:58.574Z,9.80
2019-02-25T13:15:28.036Z,9.80
2019-02-25T13:17:57.468Z,9.80
2019-02-25T13:20:27.510Z,9.80
2019-02-25T13:22:56.967Z,9.80
2019-02-25T13:25:26.493Z,9.80
2019-02-25T13:27:56.938Z,9.90
2019-02-25T13:30:27.071Z,9.90
2019-02-25T13:32:56.551Z,10.00
2019-02-25T13:35:26.092Z,9.90
2019-02-25T13:37:55.690Z,10.00
2019-02-25T13:40:25.170Z,10.00
2019-02-25T13:42:54.862Z,10.00
2019-02-25T13:45:24.355Z,9.90
2019-02-25T13:47:53.845Z,10.00
2019-02-25T13:50:23.345Z,10.00
2019-02-25T13:52:52.804Z,10.00
2019-02-25T13:55:22.549Z,10.00
2019-02-25T13:57:53.365Z,10.00
2019-02-25T14:00:23.041Z,10.00
2019-02-25T14:02:52.685Z,10.00
2019-02-25T14:05:23.098Z,10.00
2019-02-25T14:07:52.577Z,10.00
2019-02-25T14:10:22.121Z,10.00
2019-02-25T14:12:51.649Z,10.00
2019-02-25T14:15:22.060Z,10.00
2019-02-25T14:17:51.779Z,10.00
2019-02-25T14:20:21.383Z,10.00
2019-02-25T14:22:52.259Z,10.00
2019-02-25T14:25:23.035Z,10.00
2019-02-25T14:27:54.087Z,10.00
2019-02-25T14:30:24.541Z,9.90
2019-02-25T14:32:55.788Z,9.90
2019-02-25T14:35:28.520Z,10.00
2019-02-25T14:38:04.147Z,9.90
2019-02-25T14:40:32.137Z,9.90
2019-02-25T14:43:03.310Z,9.90
2019-02-25T14:45:34.288Z,9.90
2019-02-25T14:48:05.387Z,9.90
2019-02-25T14:50:34.242Z,9.90
2019-02-25T14:53:06.105Z,9.90
2019-02-25T14:55:35.078Z,9.90
2019-02-25T14:58:07.098Z,9.90
2019-02-25T15:00:38.040Z,9.90
2019-02-25T15:03:07.446Z,9.90
2019-02-25T15:05:38.418Z,9.90
2019-02-25T15:08:07.895Z,9.90
2019-02-25T15:10:40.551Z,9.90
2019-02-25T15:13:10.619Z,9.90
2019-02-25T15:15:41.725Z,9.90
2019-02-25T15:18:11.429Z,9.90
2019-02-25T15:20:40.908Z,9.80
2019-02-25T15:23:12.503Z,9.80
2019-02-25T15:25:43.245Z,9.80
2019-02-25T15:28:16.136Z,9.80
2019-02-25T15:30:45.873Z,9.80
2019-02-25T15:33:15.405Z,9.80
2019-02-25T15:35:44.917Z,9.80
2019-02-25T15:38:14.382Z,9.80
2019-02-25T15:40:44.941Z,9.70
2019-02-25T15:43:17.696Z,9.70
2019-02-25T15:45:46.180Z,9.70
2019-02-25T15:48:17.604Z,9.60
2019-02-25T15:50:48.566Z,9.60
2019-02-25T15:53:19.271Z,9.60
2019-02-25T15:55:48.774Z,9.50
2019-02-25T15:58:19.193Z,9.50
2019-02-25T16:00:48.897Z,9.50
2019-02-25T16:03:20.678Z,9.40
2019-02-25T16:05:54.465Z,9.40
2019-02-25T16:08:23.820Z,9.40
2019-02-25T16:10:57.778Z,9.30
2019-02-25T16:13:27.221Z,9.30
2019-02-25T16:15:56.653Z,9.30
2019-02-25T16:18:27.836Z,9.20
2019-02-25T16:20:59.739Z,9.20
2019-02-25T16:23:32.150Z,9.20
2019-02-25T16:26:01.199Z,9.10
2019-02-25T16:28:33.013Z,9.10
2019-02-25T16:31:03.940Z,9.00
2019-02-25T16:33:35.228Z,9.00
2019-02-25T16:36:07.706Z,8.90
2019-02-25T16:38:38.742Z,8.80
2019-02-25T16:41:10.223Z,8.80
2019-02-25T16:43:39.772Z,8.70
2019-02-25T16:46:13.490Z,8.70
2019-02-25T16:48:40.867Z,8.60
2019-02-25T16:51:12.480Z,8.60
2019-02-25T16:53:43.155Z,8.60
2019-02-25T16:56:14.149Z,8.50
2019-02-25T16:58:43.645Z,8.50
2019-02-25T17:01:13.301Z,8.50
2019-02-25T17:03:43.830Z,8.40
2019-02-25T17:06:13.985Z,8.40
2019-02-25T17:08:43.565Z,8.40
2019-02-25T17:11:15.154Z,8.40
2019-02-25T17:13:44.074Z,8.40
2019-02-25T17:16:18.087Z,8.50
2019-02-25T17:18:46.384Z,8.50
2019-02-25T17:21:16.127Z,8.50
2019-02-25T17:23:45.593Z,8.50
2019-02-25T17:26:17.313Z,8.50
2019-02-25T17:28:46.269Z,8.50
2019-02-25T17:31:16.815Z,8.50
2019-02-25T17:33:49.055Z,8.60
2019-02-25T17:36:18.396Z,8.60
2019-02-25T17:38:50.177Z,8.60
2019-02-25T17:41:19.310Z,8.60
2019-02-25T17:43:48.817Z,8.60
2019-02-25T17:46:18.262Z,8.60
2019-02-25T17:48:47.673Z,8.60
2019-02-25T17:51:18.640Z,8.60
2019-02-25T17:53:50.222Z,8.60
2019-02-25T17:56:22.366Z,8.50
2019-02-25T17:58:51.884Z,8.50
2019-02-25T18:01:24.207Z,8.50
2019-02-25T18:03:53.920Z,8.50
2019-02-25T18:06:29.472Z,8.50
2019-02-25T18:08:57.650Z,8.40
2019-02-25T18:11:28.202Z,8.40
2019-02-25T18:13:58.415Z,8.40
2019-02-25T18:16:28.546Z,8.40
2019-02-25T18:18:58.793Z,8.40
2019-02-25T18:21:29.042Z,8.30
2019-02-25T18:23:59.423Z,8.30
2019-02-25T18:26:30.947Z,8.30
2019-02-25T18:29:01.536Z,8.30
2019-02-25T18:31:31.586Z,8.30
2019-02-25T18:34:02.234Z,8.30
2019-02-25T18:36:33.208Z,8.30
2019-02-25T18:39:03.638Z,8.30
2019-02-25T18:41:34.367Z,8.30
2019-02-25T18:44:05.403Z,8.20
2019-02-25T18:46:36.558Z,8.20
2019-02-25T18:49:07.383Z,8.30
2019-02-25T18:51:39.454Z,8.20
2019-02-25T18:54:09.683Z,8.20
2019-02-25T18:56:40.323Z,8.20
2019-02-25T18:59:15.364Z,8.10
2019-02-25T19:01:43.442Z,8.10
2019-02-25T19:04:15.232Z,8.10
2019-02-25T19:06:45.690Z,8.10
2019-02-25T19:09:23.159Z,8.00
2019-02-25T19:11:54.027Z,8.00
2019-02-25T19:14:26.514Z,8.00
2019-02-25T19:16:57.746Z,8.00
2019-02-25T19:19:31.318Z,8.00
2019-02-25T19:22:00.948Z,8.00
2019-02-25T19:24:33.248Z,8.00
2019-02-25T19:27:04.376Z,8.00
2019-02-25T19:29:35.183Z,8.00
2019-02-25T19:32:05.421Z,7.90
2019-02-25T19:34:39.226Z,7.90
2019-02-25T19:37:09.718Z,7.80
2019-02-25T19:39:41.522Z,7.80
2019-02-25T19:42:15.188Z,7.70
2019-02-25T19:44:43.999Z,7.70
2019-02-25T19:47:14.913Z,7.70
2019-02-25T19:49:46.136Z,7.60
2019-02-25T19:52:16.934Z,7.70
2019-02-25T19:54:48.832Z,7.60
2019-02-25T19:57:20.998Z,7.60
2019-02-25T19:59:52.855Z,7.60
2019-02-25T20:02:24.677Z,7.60
2019-02-25T20:04:54.689Z,7.60
2019-02-25T20:07:26.508Z,7.60
2019-02-25T20:09:57.948Z,7.60
2019-02-25T20:12:27.328Z,7.60
2019-02-25T20:14:56.807Z,7.70
2019-02-25T20:17:28.831Z,7.70
2019-02-25T20:19:57.889Z,7.80
2019-02-25T20:22:27.417Z,7.90
2019-02-25T20:24:57.802Z,7.90
2019-02-25T20:27:27.465Z,8.00
2019-02-25T20:29:58.033Z,8.10
2019-02-25T20:32:28.101Z,8.20
2019-02-25T20:34:59.363Z,8.30
2019-02-25T20:37:29.367Z,8.30
2019-02-25T20:40:00.710Z,8.30
2019-02-25T20:42:31.113Z,8.40
2019-02-25T20:45:02.759Z,8.40
2019-02-25T20:47:32.887Z,8.40
2019-02-25T20:50:03.725Z,8.40
2019-02-25T20:52:34.103Z,8.40
2019-02-25T20:55:05.863Z,8.50
2019-02-25T20:57:36.455Z,8.50
2019-02-25T21:00:10.780Z,8.50
2019-02-25T21:02:40.647Z,8.60
2019-02-25T21:05:13.908Z,8.60
2019-02-25T21:07:41.335Z,8.60
2019-02-25T21:10:12.007Z,8.60
2019-02-25T21:12:43.150Z,8.70
2019-02-25T21:15:13.902Z,8.70
2019-02-25T21:17:43.303Z,8.70
2019-02-25T21:20:13.629Z,8.70
2019-02-25T21:22:44.502Z,8.80
2019-02-25T21:25:14.022Z,8.70
2019-02-25T21:27:43.478Z,8.80
2019-02-25T21:30:14.762Z,8.80
2019-02-25T21:32:45.640Z,8.80
2019-02-25T21:35:15.516Z,8.90
2019-02-25T21:37:47.678Z,9.00
2019-02-25T21:40:17.012Z,9.10
2019-02-25T21:42:48.747Z,9.10
2019-02-25T21:45:20.059Z,9.20
2019-02-25T21:47:52.289Z,9.20
2019-02-25T21:50:19.876Z,9.20
2019-02-25T21:52:49.217Z,9.20
2019-02-25T21:55:18.789Z,9.20
2019-02-25T21:57:48.519Z,9.30
2019-02-25T22:00:18.310Z,9.40
2019-02-25T22:02:50.268Z,9.40
2019-02-25T22:05:21.297Z,9.50
2019-02-25T22:07:54.368Z,9.50
2019-02-25T22:10:21.688Z,9.50
2019-02-25T22:12:51.168Z,9.50
2019-02-25T22:15:22.363Z,9.50
2019-02-25T22:17:53.368Z,9.50
2019-02-25T22:20:24.977Z,9.50
2019-02-25T22:22:56.737Z,9.50
2019-02-25T22:25:25.031Z,9.50
2019-02-25T22:27:54.729Z,9.50
2019-02-25T22:30:24.077Z,9.40
2019-02-25T22:32:53.493Z,9.40
2019-02-25T22:35:22.900Z,9.40
2019-02-25T22:37:53.260Z,9.40
2019-02-25T22:40:23.892Z,9.40
2019-02-25T22:42:54.955Z,9.40
2019-02-25T22:45:24.351Z,9.30
2019-02-25T22:47:53.910Z,9.30
2019-02-25T22:50:23.354Z,9.30
2019-02-25T22:52:58.304Z,9.30
2019-02-25T22:55:23.956Z,9.30
2019-02-25T22:57:54.145Z,9.30
2019-02-25T23:00:42.141Z,9.30
2019-02-25T23:03:15.090Z,9.20
2019-02-25T23:05:43.709Z,9.20
2019-02-25T23:08:15.581Z,9.20
2019-02-25T23:10:46.963Z,9.10
2019-02-25T23:13:19.850Z,9.20
2019-02-25T23:15:51.153Z,9.10
2019-02-25T23:18:24.481Z,9.10
2019-02-25T23:20:53.108Z,9.00
2019-02-25T23:23:25.449Z,9.00
2019-02-25T23:25:55.856Z,9.00
2019-02-25T23:28:26.143Z,8.90
2019-02-25T23:30:56.173Z,8.90
2019-02-25T23:33:25.698Z,8.80
2019-02-25T23:35:56.050Z,8.80
2019-02-25T23:38:25.554Z,8.80
2019-02-25T23:40:55.328Z,8.80
2019-02-25T23:43:25.250Z,8.70
2019-02-25T23:45:54.739Z,8.70
2019-02-25T23:48:26.400Z,8.70
2019-02-25T23:50:57.210Z,8.60
2019-02-25T23:53:28.319Z,8.60
2019-02-25T23:55:58.729Z,8.60
2019-02-25T23:58:28.262Z,8.50
